createdAt,value
2023-01-13T00:03:51.439Z,100058.09
2023-01-13T00:08:54.090Z,100044.19
2023-01-13T00:13:56.910Z,100036.84
2023-01-13T00:18:58.917Z,100029.81
2023-01-13T00:24:00.607Z,100023.50
2023-01-13T00:29:02.534Z,100022.47
2023-01-13T00:34:05.118Z,100026.22
2023-01-13T00:39:16.799Z,100007.72
2023-01-13T00:44:18.644Z,100011.28
2023-01-13T00:49:20.386Z,100011.13
2023-01-13T00:54:22.158Z,100005.63
2023-01-13T00:59:23.905Z,100001.88
2023-01-13T01:04:25.711Z,100003.94
2023-01-13T01:09:33.490Z,100006.13
2023-01-13T01:14:35.274Z,100012.28
2023-01-13T01:19:38.848Z,100022.56
2023-01-13T01:24:40.635Z,99998.66
2023-01-13T01:29:42.309Z,100004.78
2023-01-13T01:34:44.009Z,99998.13
2023-01-13T01:39:45.625Z,99981.16
2023-01-13T01:44:58.622Z,99986.50
2023-01-13T01:50:03.107Z,99991.63
2023-01-13T01:55:08.204Z,100000.88
2023-01-13T02:00:10.643Z,99991.63
2023-01-13T02:05:16.005Z,99991.63
2023-01-13T02:10:21.725Z,99972.97
2023-01-13T02:15:32.794Z,99988.00
2023-01-13T02:21:09.498Z,99971.78
2023-01-13T02:26:31.289Z,99964.31
2023-01-13T02:31:44.827Z,99969.22
2023-01-13T02:36:58.163Z,99962.31
2023-01-13T02:42:26.186Z,99962.59
2023-01-13T02:47:32.489Z,99968.72
2023-01-13T02:52:45.316Z,99962.59
2023-01-13T02:57:48.420Z,99976.09
2023-01-13T03:02:50.164Z,99965.72
2023-01-13T03:07:57.604Z,99953.72
2023-01-13T03:13:16.205Z,99953.22
2023-01-13T03:18:46.950Z,99950.31
2023-01-13T03:23:54.762Z,99935.84
2023-01-13T03:29:20.223Z,99935.00
2023-01-13T03:34:24.449Z,99937.84
2023-01-13T03:39:32.072Z,99922.56
2023-01-13T03:44:40.869Z,99948.06
2023-01-13T03:50:03.683Z,99926.97
2023-01-13T03:55:15.453Z,99923.22
2023-01-13T04:00:19.629Z,99934.16
2023-01-13T04:05:22.078Z,99945.78
2023-01-13T04:10:34.807Z,99954.38
2023-01-13T04:15:42.975Z,99952.97
2023-01-13T04:20:47.353Z,99946.91
2023-01-13T04:25:50.078Z,99953.09
2023-01-13T04:30:52.617Z,99951.41
2023-01-13T04:35:55.266Z,99945.75
2023-01-13T04:40:57.047Z,99946.06
2023-01-13T04:45:58.743Z,99947.97
2023-01-13T04:51:00.443Z,99944.06
2023-01-13T04:56:02.157Z,99952.19
2023-01-13T05:01:03.914Z,99939.41
2023-01-13T05:06:05.812Z,99947.31
2023-01-13T05:11:27.597Z,99937.59
2023-01-13T05:16:48.145Z,99951.84
2023-01-13T05:22:08.600Z,99942.59
2023-01-13T05:27:10.141Z,99934.69
2023-01-13T05:32:11.814Z,99930.31
2023-01-13T05:37:13.593Z,99947.59
2023-01-13T05:42:33.930Z,99952.03
2023-01-13T05:47:35.588Z,99949.72
2023-01-13T05:52:37.793Z,99954.53
2023-01-13T05:57:39.411Z,99956.88
2023-01-13T06:02:41.077Z,99961.81
2023-01-13T06:07:42.765Z,99957.00
2023-01-13T06:12:44.531Z,99964.47
2023-01-13T06:17:46.859Z,99955.22
2023-01-13T06:22:51.768Z,99962.22
2023-01-13T06:27:55.591Z,99964.47
2023-01-13T06:33:01.157Z,99969.47
2023-01-13T06:38:06.070Z,99972.97
2023-01-13T06:43:17.282Z,99984.50
2023-01-13T06:48:22.759Z,99980.63
2023-01-13T06:53:24.494Z,99990.91
2023-01-13T06:58:26.233Z,99983.13
2023-01-13T07:03:28.014Z,99990.94
2023-01-13T07:08:29.760Z,99983.66
2023-01-13T07:13:50.140Z,99987.75
2023-01-13T07:18:51.683Z,99984.09
2023-01-13T07:23:53.337Z,100005.81
2023-01-13T07:28:54.976Z,100001.38
2023-01-13T07:33:56.655Z,100012.72
2023-01-13T07:38:58.278Z,100004.91
2023-01-13T07:44:05.065Z,100009.31
2023-01-13T07:49:07.340Z,100029.63
2023-01-13T07:54:09.202Z,100023.50
2023-01-13T07:59:11.229Z,100030.22
2023-01-13T08:04:13.060Z,100033.53
2023-01-13T08:09:14.927Z,100040.06
2023-01-13T08:14:16.562Z,100046.56
2023-01-13T08:19:18.402Z,100048.84
2023-01-13T08:24:20.040Z,100067.75
2023-01-13T08:29:21.817Z,100065.75
2023-01-13T08:34:23.850Z,100074.19
2023-01-13T08:39:25.589Z,100083.06
2023-01-13T08:44:29.294Z,100069.09
2023-01-13T08:49:31.000Z,100092.69
2023-01-13T08:54:32.733Z,100088.78
2023-01-13T08:59:34.967Z,100092.34
2023-01-13T09:04:36.694Z,100132.06
2023-01-13T09:09:39.250Z,100122.78
2023-01-13T09:14:41.077Z,100116.66
2023-01-13T09:19:42.853Z,100129.63
2023-01-13T09:24:45.337Z,100133.75
2023-01-13T09:29:47.081Z,100139.25
2023-01-13T09:35:00.828Z,100136.16
2023-01-13T09:40:07.815Z,100133.75
2023-01-13T09:45:16.814Z,100153.56
2023-01-13T09:50:28.013Z,100165.25
2023-01-13T09:55:34.644Z,100167.13
2023-01-13T10:01:14.540Z,100180.84
2023-01-13T10:06:22.420Z,100183.59
2023-01-13T10:11:48.573Z,100188.00
2023-01-13T10:17:18.081Z,100197.00
2023-01-13T10:22:39.187Z,100199.13
2023-01-13T10:27:41.112Z,100205.84
2023-01-13T10:32:46.316Z,100214.34
2023-01-13T10:37:57.670Z,100234.66
2023-01-13T10:43:08.358Z,100234.28
2023-01-13T10:48:15.105Z,100241.47
2023-01-13T10:53:20.061Z,100253.78
2023-01-13T10:58:21.727Z,100253.56
2023-01-13T11:03:24.966Z,100267.13
2023-01-13T11:08:30.194Z,100272.59
2023-01-13T11:14:00.535Z,100272.25
2023-01-13T11:19:12.582Z,100278.28
2023-01-13T11:24:37.322Z,100284.63
2023-01-13T11:29:59.477Z,100296.81
2023-01-13T11:35:10.048Z,100300.69
2023-01-13T11:40:18.607Z,100310.31
2023-01-13T11:45:42.310Z,100309.84
2023-01-13T11:50:51.065Z,100313.72
2023-01-13T11:55:58.734Z,100320.09
2023-01-13T12:01:23.259Z,100343.19
2023-01-13T12:06:34.987Z,100355.31
2023-01-13T12:12:15.266Z,100350.38
2023-01-13T12:17:32.905Z,100371.97
2023-01-13T12:22:37.236Z,100368.91
2023-01-13T12:27:46.435Z,100390.50
2023-01-13T12:32:50.000Z,100383.84
2023-01-13T12:38:16.316Z,100404.03
2023-01-13T12:43:39.679Z,100409.69
2023-01-13T12:48:59.611Z,100410.88
2023-01-13T12:54:03.514Z,100421.34
2023-01-13T12:59:17.477Z,100415.53
2023-01-13T13:04:20.533Z,100425.13
2023-01-13T13:09:29.023Z,100433.69
2023-01-13T13:14:39.914Z,100443.06
2023-01-13T13:19:42.189Z,100458.84
2023-01-13T13:25:03.728Z,100461.59
2023-01-13T13:30:29.991Z,100467.75
2023-01-13T13:35:57.507Z,100465.03
2023-01-13T13:41:17.813Z,100480.28
2023-01-13T13:46:46.990Z,100489.19
2023-01-13T13:52:10.230Z,100497.75
2023-01-13T13:57:18.982Z,100508.41
2023-01-13T14:02:28.548Z,100520.78
2023-01-13T14:07:30.175Z,100540.31
2023-01-13T14:12:38.608Z,100549.22
2023-01-13T14:17:40.265Z,100549.03
2023-01-13T14:22:47.376Z,100565.34
2023-01-13T14:27:49.252Z,100585.53
2023-01-13T14:32:51.500Z,100595.47
2023-01-13T14:38:01.993Z,100598.06
2023-01-13T14:43:10.636Z,100603.03
2023-01-13T14:48:13.903Z,100615.56
2023-01-13T14:53:43.267Z,100617.25
2023-01-13T14:58:45.025Z,100627.22
2023-01-13T15:03:50.958Z,100635.25
2023-01-13T15:08:52.992Z,100638.88
2023-01-13T15:14:01.478Z,100641.44
2023-01-13T15:19:03.899Z,100659.25
2023-01-13T15:24:06.049Z,100682.22
2023-01-13T15:29:15.171Z,100671.09
2023-01-13T15:34:16.795Z,100682.06
2023-01-13T15:39:18.462Z,100716.50
2023-01-13T15:44:38.801Z,100716.81
2023-01-13T15:49:42.211Z,100722.66
2023-01-13T15:54:43.924Z,100721.47
2023-01-13T15:59:45.737Z,100739.44
2023-01-13T16:04:47.391Z,100736.53
2023-01-13T16:09:49.156Z,100745.28
2023-01-13T16:14:50.860Z,100756.78
2023-01-13T16:19:52.571Z,100770.13
2023-01-13T16:24:54.305Z,100773.72
2023-01-13T16:29:56.015Z,100776.13
2023-01-13T16:34:59.671Z,100786.41
2023-01-13T16:40:02.642Z,100784.19
2023-01-13T16:45:08.616Z,100791.38
2023-01-13T16:50:24.327Z,100809.88
2023-01-13T16:55:27.010Z,100817.94
2023-01-13T17:00:28.995Z,100821.84
2023-01-13T17:05:30.699Z,100820.13
2023-01-13T17:10:32.362Z,100825.63
2023-01-13T17:15:35.396Z,100839.69
2023-01-13T17:20:37.663Z,100836.97
2023-01-13T17:25:39.288Z,100838.47
2023-01-13T17:30:43.818Z,100842.91
2023-01-13T17:35:46.067Z,100850.84
2023-01-13T17:40:50.111Z,100851.53
2023-01-13T17:45:52.523Z,100859.75
2023-01-13T17:50:54.509Z,100848.25
2023-01-13T17:55:56.207Z,100862.66
2023-01-13T18:00:57.939Z,100876.50
2023-01-13T18:06:15.357Z,100876.88
2023-01-13T18:11:19.481Z,100875.16
2023-01-13T18:16:22.626Z,100885.25
2023-01-13T18:21:45.240Z,100896.09
2023-01-13T18:27:05.565Z,100920.59
2023-01-13T18:32:08.945Z,100924.38
2023-01-13T18:37:12.883Z,100948.91
2023-01-13T18:42:33.281Z,100951.81
2023-01-13T18:47:34.999Z,100966.06
2023-01-13T18:52:36.692Z,100970.53
2023-01-13T18:57:41.204Z,100974.44
2023-01-13T19:02:43.580Z,100982.22
2023-01-13T19:07:50.532Z,100996.63
2023-01-13T19:12:52.218Z,100994.91
2023-01-13T19:17:53.842Z,100997.63
2023-01-13T19:22:55.600Z,101012.69
2023-01-13T19:27:57.300Z,101017.78
2023-01-13T19:32:59.047Z,101021.56
2023-01-13T19:38:00.612Z,101016.09
2023-01-13T19:43:21.030Z,101042.13
2023-01-13T19:48:25.368Z,101040.50
2023-01-13T19:53:27.856Z,101053.28
2023-01-13T19:58:29.978Z,101046.78
2023-01-13T20:03:35.944Z,101055.38
2023-01-13T20:08:37.903Z,101060.06
2023-01-13T20:13:39.589Z,101056.84
2023-01-13T20:18:41.314Z,101073.28
2023-01-13T20:23:44.286Z,101086.91
2023-01-13T20:28:46.905Z,101101.25
2023-01-13T20:33:50.646Z,101101.94
2023-01-13T20:38:56.359Z,101112.44
2023-01-13T20:43:57.974Z,101115.91
2023-01-13T20:48:59.599Z,101123.75
2023-01-13T20:54:01.362Z,101105.72
2023-01-13T20:59:03.649Z,101120.44
2023-01-13T21:04:06.794Z,101119.44
2023-01-13T21:09:08.972Z,101133.09
2023-01-13T21:14:37.008Z,101139.91
2023-01-13T21:19:38.658Z,101144.91
2023-01-13T21:24:40.468Z,101138.38
2023-01-13T21:29:44.504Z,101155.41
2023-01-13T21:34:46.602Z,101152.50
2023-01-13T21:39:49.218Z,101162.38
2023-01-13T21:45:09.186Z,101170.59
2023-01-13T21:50:12.828Z,101173.34
2023-01-13T21:55:26.323Z,101185.00
2023-01-13T22:00:30.914Z,101191.91
2023-01-13T22:05:33.155Z,101197.00
2023-01-13T22:10:35.348Z,101203.44
2023-01-13T22:15:36.951Z,101208.75
2023-01-13T22:20:38.668Z,101214.03
2023-01-13T22:25:40.333Z,101212.69
2023-01-13T22:30:42.476Z,101208.22
2023-01-13T22:35:44.045Z,101208.84
2023-01-13T22:40:45.613Z,101224.50
2023-01-13T22:45:56.808Z,101229.28
2023-01-13T22:51:04.984Z,101229.63
2023-01-13T22:56:07.283Z,101221.53
2023-01-13T23:01:18.136Z,101227.41
2023-01-13T23:06:23.980Z,101213.47
2023-01-13T23:11:27.696Z,101204.75
2023-01-13T23:16:31.193Z,101201.16
2023-01-13T23:21:36.196Z,101199.28
2023-01-13T23:26:38.040Z,101194.50
2023-01-13T23:31:40.582Z,101197.88
2023-01-13T23:36:43.436Z,101203.28
2023-01-13T23:41:45.114Z,101212.66
2023-01-13T23:46:46.994Z,101213.81
2023-01-13T23:51:51.987Z,101219.22
2023-01-13T23:56:53.725Z,101225.19
